createdAt,value
2017-09-28T00:00:17.873Z,24.50
2017-09-28T00:02:46.247Z,23.60
2017-09-28T00:05:14.648Z,24.10
2017-09-28T00:07:43.029Z,22.73
2017-09-28T00:10:11.431Z,25.20
2017-09-28T00:12:39.856Z,25.73
2017-09-28T00:15:08.268Z,25.58
2017-09-28T00:17:36.670Z,25.02
2017-09-28T00:20:05.051Z,23.42
2017-09-28T00:22:33.707Z,22.10
2017-09-28T00:25:02.174Z,19.73
2017-09-28T00:27:30.572Z,18.90
2017-09-28T00:29:58.978Z,17.23
2017-09-28T00:32:27.373Z,16.70
2017-09-28T00:34:55.992Z,20.88
2017-09-28T00:37:24.388Z,18.80
2017-09-28T00:39:52.818Z,19.55
2017-09-28T00:42:22.004Z,18.83
2017-09-28T00:44:51.151Z,18.77
2017-09-28T00:47:19.736Z,17.90
2017-09-28T00:49:48.128Z,20.25
2017-09-28T00:52:16.527Z,19.80
2017-09-28T00:54:44.922Z,19.65
2017-09-28T00:57:13.296Z,20.08
2017-09-28T00:59:41.935Z,17.85
2017-09-28T01:02:10.328Z,18.60
2017-09-28T01:04:38.702Z,20.92
2017-09-28T01:07:07.115Z,19.85
2017-09-28T01:09:35.515Z,19.35
2017-09-28T01:12:04.843Z,20.50
2017-09-28T01:14:33.235Z,21.25
2017-09-28T01:17:01.799Z,21.33
2017-09-28T01:19:30.232Z,21.52
2017-09-28T01:21:58.614Z,24.02
2017-09-28T01:24:27.808Z,21.50
2017-09-28T01:26:56.191Z,23.67
2017-09-28T01:29:24.572Z,22.70
2017-09-28T01:31:53.799Z,24.25
2017-09-28T01:34:22.174Z,29.12
2017-09-28T01:36:50.623Z,29.25
2017-09-28T01:39:19.782Z,26.75
2017-09-28T01:41:48.178Z,24.92
2017-09-28T01:44:16.607Z,24.15
2017-09-28T01:46:44.999Z,22.30
2017-09-28T01:49:13.652Z,26.92
2017-09-28T01:51:42.791Z,27.62
2017-09-28T01:54:11.250Z,25.40
2017-09-28T01:56:39.675Z,25.60
2017-09-28T01:59:08.093Z,24.60
2017-09-28T02:01:38.035Z,26.70
2017-09-28T02:04:06.419Z,25.15
2017-09-28T02:06:34.816Z,26.77
2017-09-28T02:09:03.275Z,26.08
2017-09-28T02:11:31.671Z,25.40
2017-09-28T02:14:00.352Z,26.10
2017-09-28T02:16:28.745Z,28.92
2017-09-28T02:18:57.135Z,26.62
2017-09-28T02:21:25.543Z,24.45
2017-09-28T02:23:55.058Z,21.05
2017-09-28T02:26:24.529Z,22.98
2017-09-28T02:28:53.587Z,21.87
2017-09-28T02:31:22.538Z,22.37
2017-09-28T02:33:52.674Z,23.48
2017-09-28T02:36:21.662Z,24.42
2017-09-28T02:38:51.733Z,26.33
2017-09-28T02:41:21.453Z,24.45
2017-09-28T02:43:49.837Z,26.08
2017-09-28T02:46:19.028Z,23.98
2017-09-28T02:48:47.408Z,20.52
2017-09-28T02:51:15.819Z,19.92
2017-09-28T02:53:44.198Z,23.00
2017-09-28T02:56:12.572Z,22.02
2017-09-28T02:58:41.744Z,22.70
2017-09-28T03:01:10.123Z,23.10
2017-09-28T03:03:38.769Z,23.98
2017-09-28T03:06:07.144Z,24.77
2017-09-28T03:08:35.524Z,25.17
2017-09-28T03:11:03.921Z,23.67
2017-09-28T03:13:32.314Z,23.15
2017-09-28T03:16:00.738Z,24.30
2017-09-28T03:18:29.122Z,23.40
2017-09-28T03:20:57.499Z,23.87
2017-09-28T03:23:25.908Z,22.77
2017-09-28T03:25:54.292Z,23.52
2017-09-28T03:28:22.735Z,23.45
2017-09-28T03:30:51.106Z,24.83
2017-09-28T03:33:19.479Z,21.10
2017-09-28T03:35:47.886Z,21.30
2017-09-28T03:38:16.269Z,20.73
2017-09-28T03:40:44.962Z,22.13
2017-09-28T03:43:13.339Z,21.67
2017-09-28T03:45:41.715Z,24.10
2017-09-28T03:48:10.115Z,22.83
2017-09-28T03:50:38.495Z,21.95
2017-09-28T03:53:07.160Z,21.42
2017-09-28T03:55:35.538Z,21.75
2017-09-28T03:58:03.911Z,20.75
2017-09-28T04:00:32.320Z,21.00
2017-09-28T04:03:00.699Z,20.20
2017-09-28T04:05:29.123Z,21.58
2017-09-28T04:07:57.500Z,20.42
2017-09-28T04:10:26.735Z,20.05
2017-09-28T04:12:55.136Z,21.02
2017-09-28T04:15:23.506Z,18.95
2017-09-28T04:17:51.940Z,19.10
2017-09-28T04:20:20.316Z,18.10
2017-09-28T04:22:48.720Z,17.50
2017-09-28T04:25:17.127Z,15.35
2017-09-28T04:27:45.548Z,16.40
2017-09-28T04:30:14.270Z,15.73
2017-09-28T04:32:42.655Z,15.98
2017-09-28T04:35:11.038Z,15.73
2017-09-28T04:37:39.459Z,16.35
2017-09-28T04:40:08.599Z,16.60
2017-09-28T04:42:37.290Z,16.40
2017-09-28T04:45:05.874Z,16.58
2017-09-28T04:47:34.247Z,16.87
2017-09-28T04:50:02.655Z,17.02
2017-09-28T04:52:31.035Z,15.93
2017-09-28T04:54:59.461Z,17.65
2017-09-28T04:57:27.830Z,19.00
2017-09-28T04:59:56.222Z,16.50
2017-09-28T05:02:24.636Z,16.20
2017-09-28T05:04:53.047Z,15.20
2017-09-28T05:07:22.233Z,14.90
2017-09-28T05:09:50.610Z,14.32
2017-09-28T05:12:18.986Z,13.68
2017-09-28T05:14:47.395Z,15.93
2017-09-28T05:17:15.771Z,15.00
2017-09-28T05:19:44.487Z,16.02
2017-09-28T05:22:12.959Z,15.65
2017-09-28T05:24:41.487Z,16.52
2017-09-28T05:27:09.929Z,15.77
2017-09-28T05:29:38.348Z,14.82
2017-09-28T05:32:07.223Z,14.68
2017-09-28T05:34:35.752Z,14.80
2017-09-28T05:37:04.169Z,13.60
2017-09-28T05:39:32.670Z,13.50
2017-09-28T05:42:01.071Z,13.60
2017-09-28T05:44:30.425Z,10.93
2017-09-28T05:46:58.925Z,10.48
2017-09-28T05:49:27.308Z,10.55
2017-09-28T05:51:55.719Z,12.10
2017-09-28T05:54:24.864Z,10.63
2017-09-28T05:56:53.448Z,10.68
2017-09-28T05:59:21.827Z,10.48
2017-09-28T06:01:50.251Z,11.48
2017-09-28T06:04:19.438Z,9.95
2017-09-28T06:06:47.822Z,10.20
2017-09-28T06:09:16.355Z,9.98
2017-09-28T06:11:44.811Z,9.95
2017-09-28T06:14:13.186Z,9.60
2017-09-28T06:16:41.599Z,10.68
2017-09-28T06:19:09.988Z,10.52
2017-09-28T06:21:38.596Z,11.25
2017-09-28T06:24:06.979Z,11.65
2017-09-28T06:26:35.374Z,11.30
2017-09-28T06:29:04.557Z,11.82
2017-09-28T06:31:32.944Z,11.27
2017-09-28T06:34:02.295Z,10.85
2017-09-28T06:36:30.680Z,12.10
2017-09-28T06:38:59.063Z,9.75
2017-09-28T06:41:27.471Z,10.65
2017-09-28T06:43:55.858Z,9.70
2017-09-28T06:46:24.290Z,10.75
2017-09-28T06:48:52.675Z,11.98
2017-09-28T06:51:21.059Z,11.52
2017-09-28T06:53:49.502Z,11.65
2017-09-28T06:56:17.888Z,10.40
2017-09-28T06:58:46.484Z,10.45
2017-09-28T07:01:14.878Z,28.92
2017-09-28T07:03:43.264Z,12.47
2017-09-28T07:06:11.688Z,11.90
2017-09-28T07:08:40.119Z,10.57
2017-09-28T07:11:08.783Z,10.17
2017-09-28T07:13:37.176Z,10.40
2017-09-28T07:16:05.565Z,10.70
2017-09-28T07:18:33.992Z,10.97
2017-09-28T07:21:02.404Z,10.80
2017-09-28T07:23:31.093Z,10.80
2017-09-28T07:25:59.571Z,10.13
2017-09-28T07:28:27.952Z,11.57
2017-09-28T07:30:56.367Z,11.00
2017-09-28T07:33:25.515Z,11.07
2017-09-28T07:35:53.944Z,10.50
2017-09-28T07:38:23.098Z,10.53
2017-09-28T07:40:51.490Z,11.07
2017-09-28T07:43:19.900Z,11.30
2017-09-28T07:45:49.053Z,11.97
2017-09-28T07:48:17.617Z,11.10
2017-09-28T07:50:46.011Z,10.87
2017-09-28T07:53:14.414Z,10.90
2017-09-28T07:55:42.830Z,10.77
2017-09-28T07:58:11.215Z,12.00
2017-09-28T08:00:39.843Z,11.27
2017-09-28T08:03:08.232Z,14.23
2017-09-28T08:05:36.619Z,11.43
2017-09-28T08:08:05.027Z,11.20
2017-09-28T08:10:34.175Z,11.83
2017-09-28T08:13:02.852Z,11.10
2017-09-28T08:15:31.254Z,10.73
2017-09-28T08:17:59.639Z,10.87
2017-09-28T08:20:28.051Z,10.30
2017-09-28T08:22:56.455Z,10.13
2017-09-28T08:25:25.043Z,10.30
2017-09-28T08:27:53.456Z,11.33
2017-09-28T08:30:21.838Z,10.10
2017-09-28T08:32:50.253Z,10.20
2017-09-28T08:35:18.639Z,10.87
2017-09-28T08:37:47.040Z,10.90
2017-09-28T08:40:15.451Z,9.90
2017-09-28T08:42:44.614Z,10.70
2017-09-28T08:45:13.005Z,11.60
2017-09-28T08:47:41.412Z,10.83
2017-09-28T08:50:09.794Z,10.97
2017-09-28T08:52:38.541Z,9.87
2017-09-28T08:55:06.932Z,11.50
2017-09-28T08:57:35.315Z,12.33
2017-09-28T09:00:03.724Z,10.93
2017-09-28T09:02:32.873Z,10.70
2017-09-28T09:05:01.868Z,10.90
2017-09-28T09:07:30.260Z,10.30
2017-09-28T09:09:59.508Z,10.33
2017-09-28T09:12:28.679Z,10.47
2017-09-28T09:14:57.831Z,11.47
2017-09-28T09:17:26.527Z,10.10
2017-09-28T09:19:54.919Z,9.83
2017-09-28T09:22:23.309Z,12.20
2017-09-28T09:24:51.725Z,11.57
2017-09-28T09:27:20.106Z,11.63
2017-09-28T09:29:48.920Z,10.60
2017-09-28T09:32:17.311Z,11.67
2017-09-28T09:34:45.716Z,9.87
2017-09-28T09:37:14.131Z,9.50
2017-09-28T09:39:42.526Z,9.20
2017-09-28T09:42:10.951Z,9.87
2017-09-28T09:44:39.331Z,9.83
2017-09-28T09:47:07.724Z,9.50
2017-09-28T09:49:36.166Z,10.10
2017-09-28T09:52:04.533Z,8.47
2017-09-28T09:54:32.992Z,8.43
2017-09-28T09:57:01.370Z,9.20
2017-09-28T09:59:29.747Z,9.50
2017-09-28T10:01:58.196Z,9.43
2017-09-28T10:04:26.760Z,8.90
2017-09-28T10:07:04.676Z,9.97
2017-09-28T10:09:47.428Z,9.97
2017-09-28T10:12:35.547Z,9.07
2017-09-28T10:15:24.710Z,9.47
2017-09-28T10:17:53.904Z,9.00
2017-09-28T10:20:23.116Z,10.80
2017-09-28T10:22:52.767Z,10.03
2017-09-28T10:25:21.151Z,9.33
2017-09-28T10:27:49.527Z,10.00
2017-09-28T10:30:17.932Z,10.97
2017-09-28T10:32:47.092Z,10.67
2017-09-28T10:35:16.908Z,10.77
2017-09-28T10:37:45.315Z,9.40
2017-09-28T10:40:13.691Z,11.10
2017-09-28T10:42:42.891Z,10.33
2017-09-28T10:45:11.298Z,10.37
2017-09-28T10:47:39.926Z,11.00
2017-09-28T10:50:08.310Z,9.83
2017-09-28T10:52:36.694Z,11.23
2017-09-28T10:55:05.096Z,10.30
2017-09-28T10:57:33.475Z,10.47
2017-09-28T11:00:02.018Z,10.00
2017-09-28T11:02:30.403Z,10.03
2017-09-28T11:04:58.783Z,9.90
2017-09-28T11:07:27.192Z,9.30
2017-09-28T11:09:55.640Z,9.50
2017-09-28T11:12:24.220Z,9.73
2017-09-28T11:14:52.606Z,9.17
2017-09-28T11:17:21.004Z,8.87
2017-09-28T11:19:49.415Z,10.33
2017-09-28T11:22:17.824Z,9.20
2017-09-28T11:24:46.387Z,9.23
2017-09-28T11:27:14.763Z,8.30
2017-09-28T11:29:43.147Z,8.27
2017-09-28T11:32:11.554Z,7.57
2017-09-28T11:34:39.931Z,8.37
2017-09-28T11:37:08.515Z,8.00
2017-09-28T11:39:36.894Z,6.40
2017-09-28T11:42:05.282Z,7.60
2017-09-28T11:44:33.692Z,7.40
2017-09-28T11:47:02.062Z,6.07
2017-09-28T11:49:30.602Z,6.10
2017-09-28T11:51:59.007Z,7.97
2017-09-28T11:54:27.391Z,7.20
2017-09-28T11:56:55.796Z,6.60
2017-09-28T11:59:24.942Z,6.10
2017-09-28T12:01:53.526Z,6.10
2017-09-28T12:04:21.905Z,7.60
2017-09-28T12:06:50.283Z,7.60
2017-09-28T12:09:18.690Z,6.20
2017-09-28T12:11:47.058Z,6.60
2017-09-28T12:14:15.832Z,5.30
2017-09-28T12:16:44.207Z,6.53
2017-09-28T12:19:12.596Z,6.23
2017-09-28T12:21:40.989Z,7.00
2017-09-28T12:24:09.370Z,5.57
2017-09-28T12:26:38.946Z,5.80
2017-09-28T12:29:07.325Z,5.10
2017-09-28T12:31:35.713Z,4.83
2017-09-28T12:34:04.110Z,5.93
2017-09-28T12:36:32.574Z,5.70
2017-09-28T12:39:01.223Z,5.53
2017-09-28T12:41:29.605Z,7.60
2017-09-28T12:43:57.991Z,5.00
2017-09-28T12:46:26.419Z,5.63
2017-09-28T12:48:54.796Z,5.10
2017-09-28T12:51:23.226Z,5.00
2017-09-28T12:53:51.603Z,5.50
2017-09-28T12:56:19.980Z,5.70
2017-09-28T12:58:48.390Z,5.63
2017-09-28T13:01:16.797Z,6.30
2017-09-28T13:03:45.541Z,6.03
2017-09-28T13:06:13.912Z,5.73
2017-09-28T13:08:42.292Z,5.87
2017-09-28T13:11:10.699Z,4.60
2017-09-28T13:13:39.096Z,5.87
2017-09-28T13:16:08.294Z,5.70
2017-09-28T13:18:36.671Z,5.30
2017-09-28T13:21:05.820Z,5.30
2017-09-28T13:23:34.219Z,4.80
2017-09-28T13:26:02.602Z,4.60
2017-09-28T13:28:31.167Z,5.53
2017-09-28T13:30:59.547Z,5.47
2017-09-28T13:33:27.926Z,6.10
2017-09-28T13:35:56.325Z,4.50
2017-09-28T13:38:24.703Z,5.43
2017-09-28T13:40:53.375Z,5.43
2017-09-28T13:43:21.747Z,5.23
2017-09-28T13:45:50.129Z,4.90
2017-09-28T13:48:18.534Z,3.87
2017-09-28T13:50:46.908Z,4.50
2017-09-28T13:53:15.566Z,4.03
2017-09-28T13:55:43.943Z,4.97
2017-09-28T13:58:12.319Z,4.80
2017-09-28T14:00:40.809Z,4.80
2017-09-28T14:03:09.186Z,6.17
2017-09-28T14:05:37.760Z,5.63
2017-09-28T14:08:06.141Z,4.07
2017-09-28T14:10:34.521Z,4.50
2017-09-28T14:13:02.926Z,5.13
2017-09-28T14:15:31.305Z,3.93
2017-09-28T14:17:59.867Z,4.23
2017-09-28T14:20:28.392Z,4.23
2017-09-28T14:22:57.538Z,4.97
2017-09-28T14:25:25.942Z,4.03
2017-09-28T14:27:54.332Z,4.20
2017-09-28T14:30:22.778Z,5.10
2017-09-28T14:32:51.581Z,4.90
2017-09-28T14:35:19.981Z,5.73
2017-09-28T14:37:48.388Z,6.97
2017-09-28T14:40:16.780Z,4.90
2017-09-28T14:42:45.380Z,5.03
2017-09-28T14:45:13.765Z,5.73
2017-09-28T14:47:42.147Z,4.77
2017-09-28T14:50:10.549Z,5.50
2017-09-28T14:52:38.936Z,4.73
2017-09-28T14:55:07.687Z,5.53
2017-09-28T14:57:36.722Z,5.17
2017-09-28T15:00:05.103Z,5.17
2017-09-28T15:02:34.270Z,5.30
2017-09-28T15:05:02.643Z,5.13
2017-09-28T15:07:31.454Z,4.30
2017-09-28T15:09:59.844Z,5.50
2017-09-28T15:12:28.995Z,6.00
2017-09-28T15:14:57.426Z,5.97
2017-09-28T15:17:26.570Z,6.00
2017-09-28T15:19:55.011Z,5.57
2017-09-28T15:22:23.388Z,5.40
2017-09-28T15:24:51.778Z,5.90
2017-09-28T15:27:20.184Z,6.83
2017-09-28T15:29:48.581Z,6.30
2017-09-28T15:32:17.363Z,6.70
2017-09-28T15:34:45.772Z,9.73
2017-09-28T15:37:15.471Z,8.80
2017-09-28T15:39:43.937Z,9.40
2017-09-28T15:42:12.375Z,11.40
2017-09-28T15:44:40.882Z,10.90
2017-09-28T15:47:09.324Z,18.83
2017-09-28T15:49:37.820Z,25.73
2017-09-28T15:52:06.223Z,19.30
2017-09-28T15:54:34.611Z,9.40
2017-09-28T15:57:03.291Z,21.17
2017-09-28T15:59:31.695Z,37.20
2017-09-28T16:02:00.111Z,16.03
2017-09-28T16:04:28.528Z,10.20
2017-09-28T16:06:56.930Z,7.90
2017-09-28T16:09:25.591Z,10.40
2017-09-28T16:11:53.998Z,6.80
2017-09-28T16:14:23.265Z,8.27
2017-09-28T16:16:51.707Z,7.50
2017-09-28T16:19:20.508Z,9.17
2017-09-28T16:21:49.255Z,9.53
2017-09-28T16:24:17.764Z,8.07
2017-09-28T16:26:46.192Z,7.17
2017-09-28T16:29:14.642Z,7.00
2017-09-28T16:31:43.038Z,7.57
2017-09-28T16:34:11.806Z,7.87
2017-09-28T16:36:40.240Z,7.40
2017-09-28T16:39:08.643Z,10.00
2017-09-28T16:41:37.970Z,7.90
2017-09-28T16:44:06.523Z,9.20
2017-09-28T16:46:36.301Z,9.27
2017-09-28T16:49:04.744Z,9.13
2017-09-28T16:51:33.347Z,8.20
2017-09-28T16:54:01.779Z,7.65
2017-09-28T16:56:30.218Z,7.47
2017-09-28T16:58:58.622Z,7.62
2017-09-28T17:01:27.806Z,7.82
2017-09-28T17:03:56.195Z,7.12
2017-09-28T17:06:25.718Z,6.50
2017-09-28T17:08:54.327Z,7.37
2017-09-28T17:11:22.786Z,8.95
2017-09-28T17:13:52.535Z,8.23
2017-09-28T17:16:21.428Z,16.55
2017-09-28T17:18:50.024Z,20.33
2017-09-28T17:21:20.404Z,12.07
2017-09-28T17:23:48.985Z,10.55
2017-09-28T17:26:19.565Z,10.23
2017-09-28T17:28:48.534Z,8.68
2017-09-28T17:31:17.525Z,9.25
2017-09-28T17:33:47.101Z,7.75
2017-09-28T17:36:16.142Z,8.95
2017-09-28T17:38:46.380Z,10.48
2017-09-28T17:41:14.932Z,8.07
2017-09-28T17:43:44.119Z,7.80
2017-09-28T17:46:15.436Z,9.85
2017-09-28T17:48:45.963Z,10.07
2017-09-28T17:51:15.809Z,8.20
2017-09-28T17:53:45.908Z,9.40
2017-09-28T17:56:15.721Z,9.07
2017-09-28T17:58:44.642Z,9.10
2017-09-28T18:01:14.529Z,9.23
2017-09-28T18:03:42.969Z,8.35
2017-09-28T18:06:11.851Z,9.18
2017-09-28T18:08:40.960Z,9.07
2017-09-28T18:11:10.381Z,9.00
2017-09-28T18:13:40.660Z,9.45
2017-09-28T18:16:11.058Z,9.30
2017-09-28T18:18:42.631Z,11.25
2017-09-28T18:21:12.287Z,10.93
2017-09-28T18:23:41.448Z,10.02
2017-09-28T18:26:09.885Z,10.18
2017-09-28T18:28:39.830Z,11.35
2017-09-28T18:31:08.902Z,12.77
2017-09-28T18:33:38.320Z,12.80
2017-09-28T18:36:08.525Z,13.38
2017-09-28T18:38:37.534Z,10.63
2017-09-28T18:41:06.256Z,24.15
2017-09-28T18:43:36.744Z,17.52
2017-09-28T18:46:06.610Z,20.10
2017-09-28T18:48:35.287Z,19.85
2017-09-28T18:51:04.508Z,17.95
2017-09-28T18:53:36.122Z,16.52
2017-09-28T18:56:08.871Z,15.70
2017-09-28T18:58:39.407Z,12.90
2017-09-28T19:01:13.074Z,13.98
2017-09-28T19:03:44.125Z,13.80
2017-09-28T19:06:17.863Z,14.20
2017-09-28T19:08:48.609Z,38.38
2017-09-28T19:11:19.015Z,16.80
2017-09-28T19:13:47.693Z,15.65
2017-09-28T19:16:19.011Z,15.77
2017-09-28T19:18:47.421Z,15.00
2017-09-28T19:21:16.003Z,14.45
2017-09-28T19:23:44.442Z,14.50
2017-09-28T19:26:12.835Z,14.27
2017-09-28T19:28:41.802Z,13.55
2017-09-28T19:31:11.243Z,12.90
2017-09-28T19:33:39.664Z,13.00
2017-09-28T19:36:08.875Z,13.68
2017-09-28T19:38:37.255Z,15.02
2017-09-28T19:41:06.491Z,12.93
2017-09-28T19:43:35.206Z,14.30
2017-09-28T19:46:03.677Z,15.18
2017-09-28T19:48:32.882Z,13.48
2017-09-28T19:51:01.865Z,13.13
2017-09-28T19:53:32.019Z,14.52
2017-09-28T19:56:00.922Z,14.55
2017-09-28T19:58:29.979Z,15.38
2017-09-28T20:00:58.478Z,27.15
2017-09-28T20:03:27.423Z,34.75
2017-09-28T20:05:56.642Z,14.52
2017-09-28T20:08:25.771Z,14.30
2017-09-28T20:10:54.203Z,14.25
2017-09-28T20:13:22.993Z,14.77
2017-09-28T20:15:51.700Z,15.80
2017-09-28T20:18:20.898Z,15.50
2017-09-28T20:20:49.314Z,15.32
2017-09-28T20:23:18.682Z,16.40
2017-09-28T20:25:47.129Z,17.45
2017-09-28T20:28:15.728Z,18.58
2017-09-28T20:30:44.429Z,16.05
2017-09-28T20:33:12.888Z,17.92
2017-09-28T20:35:41.293Z,28.98
2017-09-28T20:38:09.912Z,18.98
2017-09-28T20:40:39.075Z,16.75
2017-09-28T20:43:07.805Z,21.05
2017-09-28T20:45:36.282Z,15.65
2017-09-28T20:48:05.440Z,15.35
2017-09-28T20:50:34.036Z,16.60
2017-09-28T20:53:02.456Z,13.90
2017-09-28T20:55:30.878Z,14.50
2017-09-28T20:57:59.400Z,14.82
2017-09-28T21:00:27.990Z,15.50
2017-09-28T21:02:56.461Z,14.80
2017-09-28T21:05:25.611Z,16.02
2017-09-28T21:07:54.095Z,16.23
2017-09-28T21:10:22.524Z,16.40
2017-09-28T21:12:50.951Z,16.67
2017-09-28T21:15:19.738Z,17.65
2017-09-28T21:17:48.118Z,17.50
2017-09-28T21:20:16.516Z,17.92
2017-09-28T21:22:45.051Z,20.33
2017-09-28T21:25:13.479Z,19.98
2017-09-28T21:27:42.166Z,20.08
2017-09-28T21:30:10.561Z,20.90
2017-09-28T21:32:38.947Z,20.45
2017-09-28T21:35:08.131Z,19.27
2017-09-28T21:37:37.294Z,18.10
2017-09-28T21:40:05.762Z,18.65
2017-09-28T21:42:34.500Z,19.73
2017-09-28T21:45:05.541Z,20.05
2017-09-28T21:47:35.322Z,18.65
2017-09-28T21:50:04.887Z,17.85
2017-09-28T21:52:35.295Z,18.10
2017-09-28T21:55:04.860Z,16.98
2017-09-28T21:57:34.395Z,17.87
2017-09-28T22:00:05.448Z,17.73
2017-09-28T22:02:35.836Z,17.15
2017-09-28T22:05:06.380Z,17.52
2017-09-28T22:07:36.278Z,20.88
2017-09-28T22:10:06.494Z,17.60
2017-09-28T22:12:36.413Z,16.45
2017-09-28T22:15:06.043Z,19.30
2017-09-28T22:17:35.440Z,17.65
2017-09-28T22:20:06.227Z,19.33
2017-09-28T22:22:36.600Z,19.48
2017-09-28T22:25:06.725Z,18.60
2017-09-28T22:27:36.942Z,17.90
2017-09-28T22:30:07.224Z,18.35
2017-09-28T22:32:37.338Z,22.83
2017-09-28T22:35:07.935Z,17.62
2017-09-28T22:37:36.377Z,19.50
2017-09-28T22:40:04.786Z,16.77
2017-09-28T22:42:33.974Z,19.23
2017-09-28T22:45:03.128Z,17.20
2017-09-28T22:47:31.811Z,18.10
2017-09-28T22:50:00.211Z,19.87
2017-09-28T22:52:28.596Z,17.90
2017-09-28T22:54:57.001Z,17.37
2017-09-28T22:57:26.145Z,17.67
2017-09-28T22:59:54.864Z,20.77
2017-09-28T23:02:23.259Z,19.62
2017-09-28T23:04:51.651Z,18.67
2017-09-28T23:07:20.821Z,17.92
2017-09-28T23:09:49.200Z,19.92
2017-09-28T23:12:17.958Z,19.05
2017-09-28T23:14:46.339Z,18.25
2017-09-28T23:17:15.535Z,17.75
2017-09-28T23:19:44.733Z,18.08
2017-09-28T23:22:13.500Z,16.83
2017-09-28T23:24:42.023Z,15.45
2017-09-28T23:27:10.409Z,14.20
2017-09-28T23:29:38.793Z,14.15
2017-09-28T23:34:41.616Z,13.80
2017-09-28T23:37:10.071Z,13.70
2017-09-28T23:39:38.518Z,13.25
2017-09-28T23:42:06.905Z,14.70
2017-09-28T23:44:35.307Z,16.77
2017-09-28T23:47:03.691Z,13.25
2017-09-28T23:49:32.952Z,12.32
2017-09-28T23:52:01.884Z,12.75
2017-09-28T23:54:30.276Z,13.32
2017-09-28T23:56:59.192Z,13.80
2017-09-28T23:59:27.596Z,12.50
